CDT,Max TemperatureF,Mean TemperatureF,Min TemperatureF,Max Dew PointF,MeanDew PointF,Min DewpointF,Max Humidity, Mean Humidity, Min Humidity, Max Sea Level PressureIn, Mean Sea Level PressureIn, Min Sea Level PressureIn, Max VisibilityMiles, Mean VisibilityMiles, Min VisibilityMiles, Max Wind SpeedMPH, Mean Wind SpeedMPH, Max Gust SpeedMPH,PrecipitationIn, CloudCover, Events, WindDirDegrees
2013-6-1,84,74,61,64,50,39,87,50,20,30.05,29.89,29.68,10,10,10,28,16,36,0.00,2,,1
2013-6-2,81,66,54,52,48,42,90,54,27,30.16,30.06,29.96,10,10,10,14,9,20,0.00,0,,45
2013-6-3,91,75,59,57,54,49,78,52,27,29.99,29.86,29.72,10,10,10,25,15,36,0.00,0,,155
2013-6-4,91,78,66,68,64,57,90,62,39,29.94,29.80,29.73,10,10,5,29,17,39,0.12,2,Rain-Thunderstorm,116
2013-6-5,88,74,64,70,63,58,94,73,41,30.04,29.90,29.79,10,10,8,21,14,38,0.08,4,Rain-Thunderstorm,47
2013-6-6,81,70,61,61,54,46,88,64,32,30.03,29.97,29.92,10,10,10,20,15,25,0.00,4,,20
2013-6-7,84,70,55,54,51,47,84,51,32,30.01,29.95,29.86,10,10,10,17,7,25,0.00,1,,170
2013-6-8,90,76,62,61,54,48,90,56,24,29.96,29.82,29.67,10,9,2,37,21,46,0.46,2,Rain-Thunderstorm,169
2013-6-9,91,75,61,63,56,41,97,60,19,29.96,29.89,29.83,10,10,10,17,9,,0.00,0,Rain,224
2013-6-10,100,84,69,63,57,47,75,44,19,29.89,29.84,29.78,10,10,10,28,18,34,0.00,0,,207
2013-6-11,99,84,71,61,55,52,53,36,22,29.91,29.85,29.79,10,10,10,26,18,33,0.00,0,,189
2013-6-12,100,86,73,64,61,54,68,44,23,29.92,29.87,29.80,10,10,10,24,18,33,0.12,0,,195
2013-6-13,88,77,72,64,63,62,76,63,43,30.00,29.96,29.92,10,10,10,14,10,,0.00,0,,199
2013-6-14,95,88,79,64,58,53,58,38,25,30.01,29.91,29.87,10,10,10,22,14,29,0.00,0,,201
2013-6-15,89,79,69,68,64,58,90,68,35,30.07,29.94,29.84,10,9,2,25,13,36,0.18,3,Rain-Thunderstorm,195
2013-6-16,96,83,70,68,65,59,87,61,31,29.99,29.90,29.83,10,10,10,24,10,29,0.00,1,,157
2013-6-17,87,75,64,66,64,62,100,78,44,30.06,29.96,29.76,10,8,0,37,16,47,1.64,4,Fog-Rain-Thunderstorm,21
2013-6-18,88,76,66,66,62,57,96,64,36,30.04,29.98,29.91,10,10,7,13,5,16,0.00,0,,113
2013-6-19,86,76,68,69,64,58,96,72,44,30.11,29.93,29.81,10,10,8,44,10,52,0.04,1,Rain,156
2013-6-20,97,82,69,69,64,60,84,56,30,29.91,29.86,29.80,10,10,10,33,21,45,0.00,0,,168
2013-6-21,96,85,75,67,64,61,69,50,34,29.94,29.88,29.84,10,10,10,28,19,39,0.00,0,,176
2013-6-22,97,84,73,65,61,59,62,45,31,29.91,29.83,29.75,10,10,10,32,21,40,0.00,0,,172
2013-6-23,97,86,75,63,58,50,62,43,21,29.87,29.79,29.74,10,10,10,29,23,39,0.00,0,Thunderstorm,178
2013-6-24,96,84,73,64,60,55,62,44,29,29.88,29.82,29.76,10,10,10,30,23,40,0.00,0,,175
2013-6-25,100,88,77,68,65,61,64,48,31,29.81,29.75,29.67,10,10,10,38,23,45,0.00,0,,183
2013-6-26,102,90,79,69,63,60,63,43,28,29.87,29.78,29.71,10,10,10,22,17,31,0.00,0,,170
2013-6-27,107,90,75,69,62,52,76,45,17,30.13,29.92,29.81,10,10,10,29,12,43,0.00,1,Thunderstorm,166
2013-6-28,100,84,69,62,57,50,78,43,20,30.00,29.94,29.89,10,10,10,18,9,24,0.00,0,,34
2013-6-29,95,82,70,62,57,53,73,43,24,30.01,29.92,29.84,10,10,10,15,7,21,0.00,0,,26
2013-6-30,90,78,66,61,53,48,78,46,24,30.04,29.97,29.91,10,10,6,20,11,25,0.01,2,Rain-Thunderstorm,14